sensor_id;sensor_type;location;lat;lon;timestamp;temperature;humidity
23869;DHT22;12115;47.128;15.422;2023-04-10T00:00:31;5.10;99.90
23869;DHT22;12115;47.128;15.422;2023-04-10T00:02:59;5.10;99.90
23869;DHT22;12115;47.128;15.422;2023-04-10T00:05:30;5.20;99.90
23869;DHT22;12115;47.128;15.422;2023-04-10T00:07:57;5.10;99.90
23869;DHT22;12115;47.128;15.422;2023-04-10T00:10:24;5.20;99.90
23869;DHT22;12115;47.128;15.422;2023-04-10T00:12:52;5.20;99.90
23869;DHT22;12115;47.128;15.422;2023-04-10T00:15:19;5.20;99.90
23869;DHT22;12115;47.128;15.422;2023-04-10T00:17:46;5.20;99.90
23869;DHT22;12115;47.128;15.422;2023-04-10T00:20:16;5.20;99.90
23869;DHT22;12115;47.128;15.422;2023-04-10T00:22:43;5.20;99.90
23869;DHT22;12115;47.128;15.422;2023-04-10T00:25:10;5.10;99.90
23869;DHT22;12115;47.128;15.422;2023-04-10T00:27:37;5.10;99.90
23869;DHT22;12115;47.128;15.422;2023-04-10T00:30:05;5.00;99.90
23869;DHT22;12115;47.128;15.422;2023-04-10T00:32:32;5.00;99.90
23869;DHT22;12115;47.128;15.422;2023-04-10T00:34:59;5.00;99.90
23869;DHT22;12115;47.128;15.422;2023-04-10T00:37:27;5.10;99.90
23869;DHT22;12115;47.128;15.422;2023-04-10T00:39:54;5.10;99.90
23869;DHT22;12115;47.128;15.422;2023-04-10T00:42:21;5.10;99.90
23869;DHT22;12115;47.128;15.422;2023-04-10T00:44:48;5.10;99.90
23869;DHT22;12115;47.128;15.422;2023-04-10T00:47:15;5.10;99.90
23869;DHT22;12115;47.128;15.422;2023-04-10T00:49:42;5.10;99.90
23869;DHT22;12115;47.128;15.422;2023-04-10T00:52:10;5.10;99.90
23869;DHT22;12115;47.128;15.422;2023-04-10T00:54:38;5.10;99.90
23869;DHT22;12115;47.128;15.422;2023-04-10T00:57:06;5.10;99.90
23869;DHT22;12115;47.128;15.422;2023-04-10T00:59:34;5.10;99.90
23869;DHT22;12115;47.128;15.422;2023-04-10T01:02:02;5.10;99.90
23869;DHT22;12115;47.128;15.422;2023-04-10T01:04:30;5.10;99.90
23869;DHT22;12115;47.128;15.422;2023-04-10T01:12:30;5.10;99.90
23869;DHT22;12115;47.128;15.422;2023-04-10T01:15:15;5.10;99.90
23869;DHT22;12115;47.128;15.422;2023-04-10T01:18:12;5.10;99.90
23869;DHT22;12115;47.128;15.422;2023-04-10T01:20:41;5.10;99.90
23869;DHT22;12115;47.128;15.422;2023-04-10T01:28:55;5.10;99.90
23869;DHT22;12115;47.128;15.422;2023-04-10T01:31:33;5.00;99.90
23869;DHT22;12115;47.128;15.422;2023-04-10T01:34:14;5.00;99.90
23869;DHT22;12115;47.128;15.422;2023-04-10T01:36:49;4.90;99.90
23869;DHT22;12115;47.128;15.422;2023-04-10T01:39:19;4.80;99.90
23869;DHT22;12115;47.128;15.422;2023-04-10T01:41:51;4.80;99.90
23869;DHT22;12115;47.128;15.422;2023-04-10T01:44:29;4.70;99.90
23869;DHT22;12115;47.128;15.422;2023-04-10T01:46:57;4.70;99.90
23869;DHT22;12115;47.128;15.422;2023-04-10T01:49:26;4.70;99.90
23869;DHT22;12115;47.128;15.422;2023-04-10T01:52:01;4.50;99.90
23869;DHT22;12115;47.128;15.422;2023-04-10T01:54:31;4.50;99.90
23869;DHT22;12115;47.128;15.422;2023-04-10T01:57:00;4.50;99.90
23869;DHT22;12115;47.128;15.422;2023-04-10T01:59:37;4.40;99.90
23869;DHT22;12115;47.128;15.422;2023-04-10T02:02:04;4.40;99.90
23869;DHT22;12115;47.128;15.422;2023-04-10T02:04:33;4.40;99.90
23869;DHT22;12115;47.128;15.422;2023-04-10T02:07:10;4.40;99.90
23869;DHT22;12115;47.128;15.422;2023-04-10T02:15:03;4.20;99.90
23869;DHT22;12115;47.128;15.422;2023-04-10T02:17:32;4.20;99.90
23869;DHT22;12115;47.128;15.422;2023-04-10T02:20:02;4.10;99.90
23869;DHT22;12115;47.128;15.422;2023-04-10T02:22:30;4.10;99.90
23869;DHT22;12115;47.128;15.422;2023-04-10T02:24:57;4.10;99.90
23869;DHT22;12115;47.128;15.422;2023-04-10T02:27:29;4.00;99.90
23869;DHT22;12115;47.128;15.422;2023-04-10T02:29:57;4.00;99.90
23869;DHT22;12115;47.128;15.422;2023-04-10T02:32:26;3.90;99.90
23869;DHT22;12115;47.128;15.422;2023-04-10T02:34:53;3.80;99.90
23869;DHT22;12115;47.128;15.422;2023-04-10T02:37:20;3.80;99.90
23869;DHT22;12115;47.128;15.422;2023-04-10T02:39:47;3.70;99.90
23869;DHT22;12115;47.128;15.422;2023-04-10T02:42:15;3.70;99.90
23869;DHT22;12115;47.128;15.422;2023-04-10T02:44:43;3.70;99.90
23869;DHT22;12115;47.128;15.422;2023-04-10T02:47:10;3.70;99.90
23869;DHT22;12115;47.128;15.422;2023-04-10T02:49:42;3.70;99.90
23869;DHT22;12115;47.128;15.422;2023-04-10T02:52:13;3.70;99.90
23869;DHT22;12115;47.128;15.422;2023-04-10T02:54:40;3.60;99.90
23869;DHT22;12115;47.128;15.422;2023-04-10T02:57:07;3.60;99.90
23869;DHT22;12115;47.128;15.422;2023-04-10T02:59:34;3.50;99.90
23869;DHT22;12115;47.128;15.422;2023-04-10T03:02:04;3.50;99.90
23869;DHT22;12115;47.128;15.422;2023-04-10T03:04:34;3.50;99.90
23869;DHT22;12115;47.128;15.422;2023-04-10T03:07:01;3.50;99.90
23869;DHT22;12115;47.128;15.422;2023-04-10T03:09:28;3.40;99.90
23869;DHT22;12115;47.128;15.422;2023-04-10T03:11:55;3.30;99.90
23869;DHT22;12115;47.128;15.422;2023-04-10T03:14:22;3.20;99.90
23869;DHT22;12115;47.128;15.422;2023-04-10T03:16:50;3.20;99.90
23869;DHT22;12115;47.128;15.422;2023-04-10T03:19:17;3.20;99.90
23869;DHT22;12115;47.128;15.422;2023-04-10T03:21:45;3.20;99.90
23869;DHT22;12115;47.128;15.422;2023-04-10T03:24:12;3.20;99.90
23869;DHT22;12115;47.128;15.422;2023-04-10T03:26:42;3.20;99.90
23869;DHT22;12115;47.128;15.422;2023-04-10T03:29:09;3.10;99.90
23869;DHT22;12115;47.128;15.422;2023-04-10T03:31:36;3.10;99.90
23869;DHT22;12115;47.128;15.422;2023-04-10T03:34:03;3.10;99.90
23869;DHT22;12115;47.128;15.422;2023-04-10T03:36:30;3.00;99.90
23869;DHT22;12115;47.128;15.422;2023-04-10T03:38:57;3.00;99.90
23869;DHT22;12115;47.128;15.422;2023-04-10T03:41:24;3.00;99.90
23869;DHT22;12115;47.128;15.422;2023-04-10T03:43:52;3.00;99.90
23869;DHT22;12115;47.128;15.422;2023-04-10T03:46:20;2.90;99.90
23869;DHT22;12115;47.128;15.422;2023-04-10T03:48:48;2.90;99.90
23869;DHT22;12115;47.128;15.422;2023-04-10T03:51:17;2.90;99.90
23869;DHT22;12115;47.128;15.422;2023-04-10T03:53:44;2.80;99.90
23869;DHT22;12115;47.128;15.422;2023-04-10T03:56:15;2.70;99.90
23869;DHT22;12115;47.128;15.422;2023-04-10T03:58:42;2.70;99.90
23869;DHT22;12115;47.128;15.422;2023-04-10T04:01:11;2.60;99.90
23869;DHT22;12115;47.128;15.422;2023-04-10T04:03:55;2.70;99.90
23869;DHT22;12115;47.128;15.422;2023-04-10T04:06:48;2.60;99.90
23869;DHT22;12115;47.128;15.422;2023-04-10T04:09:36;2.60;99.90
23869;DHT22;12115;47.128;15.422;2023-04-10T04:12:25;2.60;99.90
23869;DHT22;12115;47.128;15.422;2023-04-10T04:15:21;2.50;99.90
23869;DHT22;12115;47.128;15.422;2023-04-10T04:18:07;2.50;99.90
23869;DHT22;12115;47.128;15.422;2023-04-10T04:20:37;2.40;99.90
23869;DHT22;12115;47.128;15.422;2023-04-10T04:23:19;2.40;99.90
23869;DHT22;12115;47.128;15.422;2023-04-10T04:26:12;2.40;99.90
23869;DHT22;12115;47.128;15.422;2023-04-10T04:28:57;2.40;99.90
23869;DHT22;12115;47.128;15.422;2023-04-10T04:31:43;2.40;99.90
23869;DHT22;12115;47.128;15.422;2023-04-10T04:34:20;2.40;99.90
23869;DHT22;12115;47.128;15.422;2023-04-10T04:37:13;2.40;99.90
23869;DHT22;12115;47.128;15.422;2023-04-10T04:39:54;2.40;99.90
23869;DHT22;12115;47.128;15.422;2023-04-10T04:42:21;2.30;99.90
23869;DHT22;12115;47.128;15.422;2023-04-10T04:45:09;2.20;99.90
23869;DHT22;12115;47.128;15.422;2023-04-10T04:48:02;2.20;99.90
23869;DHT22;12115;47.128;15.422;2023-04-10T04:50:55;2.30;99.90
23869;DHT22;12115;47.128;15.422;2023-04-10T04:53:41;2.10;99.90
23869;DHT22;12115;47.128;15.422;2023-04-10T04:56:28;2.10;99.90
23869;DHT22;12115;47.128;15.422;2023-04-10T04:59:08;2.10;99.90
23869;DHT22;12115;47.128;15.422;2023-04-10T05:01:52;2.10;99.90
23869;DHT22;12115;47.128;15.422;2023-04-10T05:04:32;2.10;99.90
23869;DHT22;12115;47.128;15.422;2023-04-10T05:07:17;2.10;99.90
23869;DHT22;12115;47.128;15.422;2023-04-10T05:10:07;2.10;99.90
23869;DHT22;12115;47.128;15.422;2023-04-10T05:12:46;2.10;99.90
23869;DHT22;12115;47.128;15.422;2023-04-10T05:15:29;2.10;99.90
23869;DHT22;12115;47.128;15.422;2023-04-10T05:18:27;2.20;99.90
23869;DHT22;12115;47.128;15.422;2023-04-10T05:20:59;2.20;99.90
23869;DHT22;12115;47.128;15.422;2023-04-10T05:23:49;2.20;99.90
23869;DHT22;12115;47.128;15.422;2023-04-10T05:26:40;2.20;99.90
23869;DHT22;12115;47.128;15.422;2023-04-10T05:29:30;2.30;99.90
23869;DHT22;12115;47.128;15.422;2023-04-10T05:32:17;2.30;99.90
23869;DHT22;12115;47.128;15.422;2023-04-10T05:34:58;2.30;99.90
23869;DHT22;12115;47.128;15.422;2023-04-10T05:37:37;2.40;99.90
23869;DHT22;12115;47.128;15.422;2023-04-10T05:40:30;2.40;99.90
23869;DHT22;12115;47.128;15.422;2023-04-10T05:43:15;2.40;99.90
23869;DHT22;12115;47.128;15.422;2023-04-10T05:46:21;2.50;99.90
23869;DHT22;12115;47.128;15.422;2023-04-10T05:49:08;2.60;99.90
23869;DHT22;12115;47.128;15.422;2023-04-10T05:51:42;2.60;99.90
23869;DHT22;12115;47.128;15.422;2023-04-10T05:54:18;2.70;99.90
23869;DHT22;12115;47.128;15.422;2023-04-10T05:57:08;2.70;99.90
23869;DHT22;12115;47.128;15.422;2023-04-10T06:00:05;2.80;99.90
23869;DHT22;12115;47.128;15.422;2023-04-10T06:03:04;2.80;99.90
23869;DHT22;12115;47.128;15.422;2023-04-10T06:05:32;2.90;99.90
23869;DHT22;12115;47.128;15.422;2023-04-10T06:08:03;3.00;99.90
23869;DHT22;12115;47.128;15.422;2023-04-10T06:10:30;3.10;99.90
23869;DHT22;12115;47.128;15.422;2023-04-10T06:12:58;3.20;99.90
23869;DHT22;12115;47.128;15.422;2023-04-10T06:15:25;3.30;99.90
23869;DHT22;12115;47.128;15.422;2023-04-10T06:17:52;3.30;99.90
23869;DHT22;12115;47.128;15.422;2023-04-10T06:20:20;3.40;99.90
23869;DHT22;12115;47.128;15.422;2023-04-10T06:22:49;3.50;99.90
23869;DHT22;12115;47.128;15.422;2023-04-10T06:25:16;3.60;99.90
23869;DHT22;12115;47.128;15.422;2023-04-10T06:27:43;3.70;99.90
23869;DHT22;12115;47.128;15.422;2023-04-10T06:30:10;3.80;99.90
23869;DHT22;12115;47.128;15.422;2023-04-10T06:32:37;3.90;99.90
23869;DHT22;12115;47.128;15.422;2023-04-10T06:35:06;3.90;99.90
23869;DHT22;12115;47.128;15.422;2023-04-10T06:37:33;4.10;99.90
23869;DHT22;12115;47.128;15.422;2023-04-10T06:40:09;4.20;99.90
23869;DHT22;12115;47.128;15.422;2023-04-10T06:42:37;4.20;99.90
23869;DHT22;12115;47.128;15.422;2023-04-10T06:45:21;4.30;99.90
23869;DHT22;12115;47.128;15.422;2023-04-10T06:47:49;4.40;99.90
23869;DHT22;12115;47.128;15.422;2023-04-10T06:50:17;4.60;99.90
23869;DHT22;12115;47.128;15.422;2023-04-10T06:52:44;4.70;99.90
23869;DHT22;12115;47.128;15.422;2023-04-10T06:55:11;4.90;99.90
23869;DHT22;12115;47.128;15.422;2023-04-10T06:57:39;5.00;99.90
23869;DHT22;12115;47.128;15.422;2023-04-10T07:00:06;5.00;99.90
23869;DHT22;12115;47.128;15.422;2023-04-10T07:02:33;5.20;99.90
23869;DHT22;12115;47.128;15.422;2023-04-10T07:05:01;5.40;99.90
23869;DHT22;12115;47.128;15.422;2023-04-10T07:07:28;5.50;99.90
23869;DHT22;12115;47.128;15.422;2023-04-10T07:09:55;5.60;99.90
23869;DHT22;12115;47.128;15.422;2023-04-10T07:12:23;5.70;99.90
23869;DHT22;12115;47.128;15.422;2023-04-10T07:14:50;6.00;99.90
23869;DHT22;12115;47.128;15.422;2023-04-10T07:17:17;6.10;99.90
23869;DHT22;12115;47.128;15.422;2023-04-10T07:19:44;6.10;99.90
23869;DHT22;12115;47.128;15.422;2023-04-10T07:22:11;6.20;99.90
23869;DHT22;12115;47.128;15.422;2023-04-10T07:24:38;6.30;99.90
23869;DHT22;12115;47.128;15.422;2023-04-10T07:27:05;6.40;99.90
23869;DHT22;12115;47.128;15.422;2023-04-10T07:29:33;6.50;99.90
23869;DHT22;12115;47.128;15.422;2023-04-10T07:32:00;6.60;99.90
23869;DHT22;12115;47.128;15.422;2023-04-10T07:34:27;6.80;99.90
23869;DHT22;12115;47.128;15.422;2023-04-10T07:36:54;6.80;99.90
23869;DHT22;12115;47.128;15.422;2023-04-10T07:39:21;6.80;99.90
23869;DHT22;12115;47.128;15.422;2023-04-10T07:41:48;6.90;99.90
23869;DHT22;12115;47.128;15.422;2023-04-10T07:44:15;7.00;99.90
23869;DHT22;12115;47.128;15.422;2023-04-10T07:46:43;7.00;99.90
23869;DHT22;12115;47.128;15.422;2023-04-10T07:49:10;7.10;99.90
23869;DHT22;12115;47.128;15.422;2023-04-10T07:51:38;7.20;99.90
23869;DHT22;12115;47.128;15.422;2023-04-10T07:54:04;7.50;99.90
23869;DHT22;12115;47.128;15.422;2023-04-10T07:56:31;7.50;99.90
23869;DHT22;12115;47.128;15.422;2023-04-10T07:58:59;7.60;99.90
23869;DHT22;12115;47.128;15.422;2023-04-10T08:01:27;7.70;99.90
23869;DHT22;12115;47.128;15.422;2023-04-10T08:03:54;7.80;99.90
23869;DHT22;12115;47.128;15.422;2023-04-10T08:06:22;7.90;99.90
23869;DHT22;12115;47.128;15.422;2023-04-10T08:08:49;8.00;99.90
23869;DHT22;12115;47.128;15.422;2023-04-10T08:11:29;8.10;99.90
23869;DHT22;12115;47.128;15.422;2023-04-10T08:13:58;8.30;99.90
23869;DHT22;12115;47.128;15.422;2023-04-10T08:16:29;8.50;99.90
23869;DHT22;12115;47.128;15.422;2023-04-10T08:18:57;8.70;99.90
23869;DHT22;12115;47.128;15.422;2023-04-10T08:21:26;8.80;99.90
23869;DHT22;12115;47.128;15.422;2023-04-10T08:23:54;8.80;99.90
23869;DHT22;12115;47.128;15.422;2023-04-10T08:26:22;8.80;99.90
23869;DHT22;12115;47.128;15.422;2023-04-10T08:28:51;8.90;99.90
23869;DHT22;12115;47.128;15.422;2023-04-10T08:31:20;9.00;99.90
23869;DHT22;12115;47.128;15.422;2023-04-10T08:33:48;9.10;99.90
23869;DHT22;12115;47.128;15.422;2023-04-10T08:36:15;9.20;99.90
23869;DHT22;12115;47.128;15.422;2023-04-10T08:38:47;9.30;99.90
23869;DHT22;12115;47.128;15.422;2023-04-10T08:41:16;9.40;99.90
23869;DHT22;12115;47.128;15.422;2023-04-10T08:43:43;9.50;99.90
23869;DHT22;12115;47.128;15.422;2023-04-10T08:46:13;9.60;99.90
23869;DHT22;12115;47.128;15.422;2023-04-10T08:48:45;9.70;99.90
23869;DHT22;12115;47.128;15.422;2023-04-10T08:51:16;9.80;99.90
23869;DHT22;12115;47.128;15.422;2023-04-10T08:53:50;9.90;99.90
23869;DHT22;12115;47.128;15.422;2023-04-10T08:56:17;10.00;99.90
23869;DHT22;12115;47.128;15.422;2023-04-10T08:58:45;10.30;99.90
23869;DHT22;12115;47.128;15.422;2023-04-10T09:01:12;10.40;99.90
23869;DHT22;12115;47.128;15.422;2023-04-10T09:03:40;10.50;99.90
23869;DHT22;12115;47.128;15.422;2023-04-10T09:06:07;10.60;99.90
23869;DHT22;12115;47.128;15.422;2023-04-10T09:08:34;10.80;99.90
23869;DHT22;12115;47.128;15.422;2023-04-10T09:11:02;10.90;99.90
23869;DHT22;12115;47.128;15.422;2023-04-10T09:13:40;11.00;99.90
23869;DHT22;12115;47.128;15.422;2023-04-10T09:16:08;11.00;99.90
23869;DHT22;12115;47.128;15.422;2023-04-10T09:18:56;11.10;99.90
23869;DHT22;12115;47.128;15.422;2023-04-10T09:21:23;11.20;99.90
23869;DHT22;12115;47.128;15.422;2023-04-10T09:23:59;11.40;99.90
23869;DHT22;12115;47.128;15.422;2023-04-10T09:26:27;11.60;99.90
23869;DHT22;12115;47.128;15.422;2023-04-10T09:29:05;11.80;99.90
23869;DHT22;12115;47.128;15.422;2023-04-10T09:31:34;12.00;99.90
23869;DHT22;12115;47.128;15.422;2023-04-10T09:34:14;11.90;99.90
23869;DHT22;12115;47.128;15.422;2023-04-10T09:36:44;12.00;99.90
23869;DHT22;12115;47.128;15.422;2023-04-10T09:39:18;12.10;99.90
23869;DHT22;12115;47.128;15.422;2023-04-10T09:41:47;12.30;99.90
23869;DHT22;12115;47.128;15.422;2023-04-10T09:44:17;12.30;99.90
23869;DHT22;12115;47.128;15.422;2023-04-10T09:46:45;12.50;99.90
23869;DHT22;12115;47.128;15.422;2023-04-10T09:49:12;12.70;99.90
23869;DHT22;12115;47.128;15.422;2023-04-10T09:51:40;12.80;99.90
23869;DHT22;12115;47.128;15.422;2023-04-10T09:54:08;12.70;99.20
23869;DHT22;12115;47.128;15.422;2023-04-10T09:56:37;12.50;97.50
23869;DHT22;12115;47.128;15.422;2023-04-10T09:59:06;12.60;99.90
23869;DHT22;12115;47.128;15.422;2023-04-10T10:01:33;12.80;98.40
23869;DHT22;12115;47.128;15.422;2023-04-10T10:04:04;13.00;97.90
23869;DHT22;12115;47.128;15.422;2023-04-10T10:06:31;13.10;99.90
23869;DHT22;12115;47.128;15.422;2023-04-10T10:09:03;13.20;99.90
23869;DHT22;12115;47.128;15.422;2023-04-10T10:11:33;13.40;99.20
23869;DHT22;12115;47.128;15.422;2023-04-10T10:14:14;13.50;99.90
23869;DHT22;12115;47.128;15.422;2023-04-10T10:16:47;13.60;98.30
23869;DHT22;12115;47.128;15.422;2023-04-10T10:19:29;13.70;95.50
23869;DHT22;12115;47.128;15.422;2023-04-10T10:21:59;13.40;94.80
23869;DHT22;12115;47.128;15.422;2023-04-10T10:24:27;13.40;94.80
23869;DHT22;12115;47.128;15.422;2023-04-10T10:26:56;13.40;96.20
23869;DHT22;12115;47.128;15.422;2023-04-10T10:29:24;13.50;97.10
23869;DHT22;12115;47.128;15.422;2023-04-10T10:31:52;13.50;95.60
23869;DHT22;12115;47.128;15.422;2023-04-10T10:34:20;13.50;96.50
23869;DHT22;12115;47.128;15.422;2023-04-10T10:36:47;13.60;97.00
23869;DHT22;12115;47.128;15.422;2023-04-10T10:40:30;13.70;95.60
23869;DHT22;12115;47.128;15.422;2023-04-10T10:42:33;13.60;95.30
23869;DHT22;12115;47.128;15.422;2023-04-10T10:45:11;13.50;94.40
23869;DHT22;12115;47.128;15.422;2023-04-10T10:47:43;13.40;94.40
23869;DHT22;12115;47.128;15.422;2023-04-10T10:50:11;13.40;95.00
23869;DHT22;12115;47.128;15.422;2023-04-10T10:52:59;13.40;94.30
23869;DHT22;12115;47.128;15.422;2023-04-10T10:55:28;13.40;95.30
23869;DHT22;12115;47.128;15.422;2023-04-10T10:58:05;13.60;95.70
23869;DHT22;12115;47.128;15.422;2023-04-10T11:09:53;13.80;92.40
23869;DHT22;12115;47.128;15.422;2023-04-10T11:12:23;14.00;93.10
23869;DHT22;12115;47.128;15.422;2023-04-10T11:14:59;14.20;94.20
23869;DHT22;12115;47.128;15.422;2023-04-10T11:17:49;14.30;91.60
23869;DHT22;12115;47.128;15.422;2023-04-10T11:20:18;14.30;91.00
23869;DHT22;12115;47.128;15.422;2023-04-10T11:23:20;14.30;91.90
23869;DHT22;12115;47.128;15.422;2023-04-10T11:25:52;14.30;91.90
23869;DHT22;12115;47.128;15.422;2023-04-10T11:28:33;14.20;92.30
23869;DHT22;12115;47.128;15.422;2023-04-10T11:36:27;13.70;89.00
23869;DHT22;12115;47.128;15.422;2023-04-10T11:39:02;13.30;89.10
23869;DHT22;12115;47.128;15.422;2023-04-10T11:41:36;13.20;90.00
23869;DHT22;12115;47.128;15.422;2023-04-10T11:44:06;13.20;91.40
23869;DHT22;12115;47.128;15.422;2023-04-10T11:46:41;13.30;91.60
23869;DHT22;12115;47.128;15.422;2023-04-10T11:49:09;13.40;91.00
23869;DHT22;12115;47.128;15.422;2023-04-10T11:51:40;13.40;90.80
23869;DHT22;12115;47.128;15.422;2023-04-10T11:54:14;13.40;89.80
23869;DHT22;12115;47.128;15.422;2023-04-10T11:56:54;13.50;90.70
23869;DHT22;12115;47.128;15.422;2023-04-10T11:59:23;13.70;90.00
23869;DHT22;12115;47.128;15.422;2023-04-10T12:01:51;13.70;89.70
23869;DHT22;12115;47.128;15.422;2023-04-10T12:04:22;13.70;89.40
23869;DHT22;12115;47.128;15.422;2023-04-10T12:06:56;13.90;90.20
23869;DHT22;12115;47.128;15.422;2023-04-10T12:09:23;13.90;90.10
23869;DHT22;12115;47.128;15.422;2023-04-10T12:11:53;14.00;90.20
23869;DHT22;12115;47.128;15.422;2023-04-10T12:14:21;14.20;91.20
23869;DHT22;12115;47.128;15.422;2023-04-10T12:16:49;14.10;89.50
23869;DHT22;12115;47.128;15.422;2023-04-10T12:19:17;14.00;90.00
23869;DHT22;12115;47.128;15.422;2023-04-10T12:21:45;13.90;89.30
23869;DHT22;12115;47.128;15.422;2023-04-10T12:24:12;14.00;90.60
23869;DHT22;12115;47.128;15.422;2023-04-10T12:26:46;14.10;91.60
23869;DHT22;12115;47.128;15.422;2023-04-10T12:29:14;14.20;91.50
23869;DHT22;12115;47.128;15.422;2023-04-10T12:31:41;14.30;91.40
23869;DHT22;12115;47.128;15.422;2023-04-10T12:34:08;14.30;90.20
23869;DHT22;12115;47.128;15.422;2023-04-10T12:36:37;14.50;91.50
23869;DHT22;12115;47.128;15.422;2023-04-10T12:39:07;14.70;91.10
23869;DHT22;12115;47.128;15.422;2023-04-10T12:41:47;14.90;90.70
23869;DHT22;12115;47.128;15.422;2023-04-10T12:44:14;15.00;87.20
23869;DHT22;12115;47.128;15.422;2023-04-10T12:46:41;15.10;90.50
23869;DHT22;12115;47.128;15.422;2023-04-10T12:51:47;15.30;90.00
23869;DHT22;12115;47.128;15.422;2023-04-10T12:54:34;15.40;88.40
23869;DHT22;12115;47.128;15.422;2023-04-10T12:57:02;15.30;88.60
23869;DHT22;12115;47.128;15.422;2023-04-10T12:59:32;15.20;84.80
23869;DHT22;12115;47.128;15.422;2023-04-10T13:01:59;15.10;85.10
23869;DHT22;12115;47.128;15.422;2023-04-10T13:04:28;15.10;85.50
23869;DHT22;12115;47.128;15.422;2023-04-10T13:06:55;15.00;85.50
23869;DHT22;12115;47.128;15.422;2023-04-10T13:09:23;14.90;84.00
23869;DHT22;12115;47.128;15.422;2023-04-10T13:11:50;14.90;85.00
23869;DHT22;12115;47.128;15.422;2023-04-10T13:14:17;14.80;82.60
23869;DHT22;12115;47.128;15.422;2023-04-10T13:16:45;14.80;83.90
23869;DHT22;12115;47.128;15.422;2023-04-10T13:19:12;14.70;83.60
23869;DHT22;12115;47.128;15.422;2023-04-10T13:21:39;14.70;82.10
23869;DHT22;12115;47.128;15.422;2023-04-10T13:24:06;14.80;80.90
23869;DHT22;12115;47.128;15.422;2023-04-10T13:26:33;15.10;84.20
23869;DHT22;12115;47.128;15.422;2023-04-10T13:29:00;15.10;81.00
23869;DHT22;12115;47.128;15.422;2023-04-10T13:31:27;15.30;85.90
23869;DHT22;12115;47.128;15.422;2023-04-10T13:33:54;15.50;86.30
23869;DHT22;12115;47.128;15.422;2023-04-10T13:36:21;15.60;83.10
23869;DHT22;12115;47.128;15.422;2023-04-10T13:38:49;15.60;78.40
23869;DHT22;12115;47.128;15.422;2023-04-10T13:41:16;15.60;82.30
23869;DHT22;12115;47.128;15.422;2023-04-10T13:43:43;15.60;80.10
23869;DHT22;12115;47.128;15.422;2023-04-10T13:46:10;15.50;77.90
23869;DHT22;12115;47.128;15.422;2023-04-10T13:48:37;15.40;80.70
23869;DHT22;12115;47.128;15.422;2023-04-10T13:51:07;15.50;82.20
23869;DHT22;12115;47.128;15.422;2023-04-10T13:53:34;15.50;79.60
23869;DHT22;12115;47.128;15.422;2023-04-10T13:56:01;15.50;80.40
23869;DHT22;12115;47.128;15.422;2023-04-10T13:58:28;15.60;80.70
23869;DHT22;12115;47.128;15.422;2023-04-10T14:00:57;15.80;82.30
23869;DHT22;12115;47.128;15.422;2023-04-10T14:03:25;15.60;79.00
23869;DHT22;12115;47.128;15.422;2023-04-10T14:05:52;15.70;79.90
23869;DHT22;12115;47.128;15.422;2023-04-10T14:08:19;15.70;82.10
23869;DHT22;12115;47.128;15.422;2023-04-10T14:10:46;15.90;83.50
23869;DHT22;12115;47.128;15.422;2023-04-10T14:13:17;15.80;79.30
23869;DHT22;12115;47.128;15.422;2023-04-10T14:15:44;15.50;79.80
23869;DHT22;12115;47.128;15.422;2023-04-10T14:18:12;15.40;78.80
23869;DHT22;12115;47.128;15.422;2023-04-10T14:20:40;15.20;77.70
23869;DHT22;12115;47.128;15.422;2023-04-10T14:23:08;15.20;79.70
23869;DHT22;12115;47.128;15.422;2023-04-10T14:25:35;15.00;77.40
23869;DHT22;12115;47.128;15.422;2023-04-10T14:28:02;15.00;78.60
23869;DHT22;12115;47.128;15.422;2023-04-10T14:30:29;15.10;80.30
23869;DHT22;12115;47.128;15.422;2023-04-10T14:32:58;15.20;79.50
23869;DHT22;12115;47.128;15.422;2023-04-10T14:35:25;15.20;77.40
23869;DHT22;12115;47.128;15.422;2023-04-10T14:37:52;15.20;77.90
23869;DHT22;12115;47.128;15.422;2023-04-10T14:40:19;15.00;77.30
23869;DHT22;12115;47.128;15.422;2023-04-10T14:42:46;14.90;76.80
23869;DHT22;12115;47.128;15.422;2023-04-10T14:45:13;14.90;79.20
23869;DHT22;12115;47.128;15.422;2023-04-10T14:47:40;15.10;81.40
23869;DHT22;12115;47.128;15.422;2023-04-10T14:50:08;15.20;81.10
23869;DHT22;12115;47.128;15.422;2023-04-10T14:52:35;15.10;76.90
23869;DHT22;12115;47.128;15.422;2023-04-10T14:55:02;15.10;78.20
23869;DHT22;12115;47.128;15.422;2023-04-10T14:57:29;15.20;80.90
23869;DHT22;12115;47.128;15.422;2023-04-10T14:59:56;15.30;77.10
23869;DHT22;12115;47.128;15.422;2023-04-10T15:02:23;15.40;78.70
23869;DHT22;12115;47.128;15.422;2023-04-10T15:04:51;15.40;79.30
23869;DHT22;12115;47.128;15.422;2023-04-10T15:07:18;15.40;79.50
23869;DHT22;12115;47.128;15.422;2023-04-10T15:09:45;15.40;77.60
23869;DHT22;12115;47.128;15.422;2023-04-10T15:12:12;15.40;77.60
23869;DHT22;12115;47.128;15.422;2023-04-10T15:14:39;15.40;79.60
23869;DHT22;12115;47.128;15.422;2023-04-10T15:17:06;15.60;79.90
23869;DHT22;12115;47.128;15.422;2023-04-10T15:19:34;15.70;79.00
23869;DHT22;12115;47.128;15.422;2023-04-10T15:22:01;15.60;77.50
23869;DHT22;12115;47.128;15.422;2023-04-10T15:24:28;15.50;76.30
23869;DHT22;12115;47.128;15.422;2023-04-10T15:27:00;15.50;76.30
23869;DHT22;12115;47.128;15.422;2023-04-10T15:29:27;15.40;76.50
23869;DHT22;12115;47.128;15.422;2023-04-10T15:31:54;15.40;76.00
23869;DHT22;12115;47.128;15.422;2023-04-10T15:34:21;15.30;76.30
23869;DHT22;12115;47.128;15.422;2023-04-10T15:36:48;15.30;78.10
23869;DHT22;12115;47.128;15.422;2023-04-10T15:39:15;15.40;78.40
23869;DHT22;12115;47.128;15.422;2023-04-10T15:41:42;15.30;75.80
23869;DHT22;12115;47.128;15.422;2023-04-10T15:44:09;15.10;75.40
23869;DHT22;12115;47.128;15.422;2023-04-10T15:46:36;15.10;75.70
23869;DHT22;12115;47.128;15.422;2023-04-10T15:49:03;15.10;75.10
23869;DHT22;12115;47.128;15.422;2023-04-10T15:51:30;15.10;75.40
23869;DHT22;12115;47.128;15.422;2023-04-10T15:53:57;15.20;77.20
23869;DHT22;12115;47.128;15.422;2023-04-10T15:56:24;15.30;76.90
23869;DHT22;12115;47.128;15.422;2023-04-10T15:58:51;15.40;77.30
23869;DHT22;12115;47.128;15.422;2023-04-10T16:01:18;15.50;77.80
23869;DHT22;12115;47.128;15.422;2023-04-10T16:03:45;15.50;77.20
23869;DHT22;12115;47.128;15.422;2023-04-10T16:06:15;15.50;75.80
23869;DHT22;12115;47.128;15.422;2023-04-10T16:08:42;15.40;76.50
23869;DHT22;12115;47.128;15.422;2023-04-10T16:11:09;15.40;76.30
23869;DHT22;12115;47.128;15.422;2023-04-10T16:13:36;15.40;77.30
23869;DHT22;12115;47.128;15.422;2023-04-10T16:16:15;15.30;76.40
23869;DHT22;12115;47.128;15.422;2023-04-10T16:18:42;15.20;76.20
23869;DHT22;12115;47.128;15.422;2023-04-10T16:21:12;15.20;77.90
23869;DHT22;12115;47.128;15.422;2023-04-10T16:23:42;15.20;77.10